createdAt,value
2023-03-28T00:02:21.296Z,18.46
2023-03-28T00:04:49.965Z,18.50
2023-03-28T00:07:20.806Z,18.54
2023-03-28T00:09:51.434Z,18.57
2023-03-28T00:15:01.706Z,18.61
2023-03-28T00:17:37.663Z,18.60
2023-03-28T00:20:12.989Z,18.66
2023-03-28T00:25:25.139Z,18.69
2023-03-28T00:27:57.735Z,18.71
2023-03-28T00:30:25.460Z,18.73
2023-03-28T00:32:54.828Z,18.75
2023-03-28T00:35:21.550Z,18.77
2023-03-28T00:37:51.020Z,18.78
2023-03-28T00:40:18.184Z,18.81
2023-03-28T00:42:44.818Z,18.82
2023-03-28T00:45:14.426Z,18.84
2023-03-28T00:47:41.889Z,18.85
2023-03-28T00:50:08.987Z,18.86
2023-03-28T00:52:44.644Z,18.88
2023-03-28T00:55:15.685Z,18.90
2023-03-28T00:57:48.271Z,18.90
2023-03-28T01:00:18.769Z,18.94
2023-03-28T01:02:51.290Z,18.94
2023-03-28T01:05:22.164Z,18.96
2023-03-28T01:07:53.234Z,18.96
2023-03-28T01:10:25.253Z,18.99
2023-03-28T01:12:56.651Z,18.99
2023-03-28T01:15:25.644Z,19.00
2023-03-28T01:17:55.203Z,19.01
2023-03-28T01:20:55.247Z,19.02
2023-03-28T01:23:43.540Z,19.03
2023-03-28T01:26:33.684Z,19.04
2023-03-28T01:29:09.530Z,19.06
2023-03-28T01:32:13.858Z,19.06
2023-03-28T01:34:46.082Z,19.08
2023-03-28T01:37:46.651Z,19.08
2023-03-28T01:40:39.464Z,19.09
2023-03-28T01:43:20.838Z,19.09
2023-03-28T01:46:05.701Z,19.09
2023-03-28T01:48:57.639Z,19.11
2023-03-28T01:51:44.246Z,19.12
2023-03-28T01:54:34.644Z,19.13
2023-03-28T01:57:54.753Z,19.14
2023-03-28T02:00:47.983Z,19.14
2023-03-28T02:03:18.892Z,19.14
2023-03-28T02:05:45.865Z,19.15
2023-03-28T02:08:14.691Z,19.15
2023-03-28T02:10:44.333Z,19.18
2023-03-28T02:13:21.776Z,19.15
2023-03-28T02:15:50.793Z,19.16
2023-03-28T02:18:26.462Z,19.17
2023-03-28T02:20:54.081Z,19.18
2023-03-28T02:23:48.256Z,19.18
2023-03-28T02:26:17.316Z,19.17
2023-03-28T02:28:49.083Z,19.19
2023-03-28T02:31:18.734Z,19.19
2023-03-28T02:33:55.573Z,19.20
2023-03-28T02:36:28.979Z,19.20
2023-03-28T02:39:01.639Z,19.22
2023-03-28T02:41:47.032Z,19.22
2023-03-28T02:44:22.889Z,19.22
2023-03-28T02:46:58.587Z,19.22
2023-03-28T02:49:50.435Z,19.23
2023-03-28T02:55:21.628Z,19.23
2023-03-28T02:57:57.608Z,19.24
2023-03-28T03:00:24.327Z,19.24
2023-03-28T03:02:54.026Z,19.25
2023-03-28T03:05:21.866Z,19.24
2023-03-28T03:07:51.629Z,19.25
2023-03-28T03:10:24.624Z,19.25
2023-03-28T03:12:58.424Z,19.24
2023-03-28T03:15:26.041Z,19.25
2023-03-28T03:17:54.856Z,19.25
2023-03-28T03:20:33.587Z,19.25
2023-03-28T03:23:04.750Z,19.26
2023-03-28T03:25:34.662Z,19.26
2023-03-28T03:28:01.673Z,19.26
2023-03-28T03:30:30.552Z,19.26
2023-03-28T03:32:57.773Z,19.26
2023-03-28T03:35:26.598Z,19.27
2023-03-28T03:37:55.593Z,19.26
2023-03-28T03:40:22.257Z,19.26
2023-03-28T03:42:48.844Z,19.26
2023-03-28T03:45:15.866Z,19.26
2023-03-28T03:47:44.877Z,19.28
2023-03-28T03:50:11.769Z,19.26
2023-03-28T03:52:40.603Z,19.27
2023-03-28T03:55:12.566Z,19.27
2023-03-28T03:57:45.940Z,19.27
2023-03-28T04:00:13.384Z,19.27
2023-03-28T04:02:43.887Z,18.98
2023-03-28T04:05:13.033Z,18.94
2023-03-28T04:07:39.831Z,19.03
2023-03-28T04:10:07.989Z,19.04
2023-03-28T04:12:34.813Z,19.05
2023-03-28T04:15:01.544Z,19.03
2023-03-28T04:17:35.770Z,19.03
2023-03-28T04:20:07.087Z,19.04
2023-03-28T04:22:35.944Z,19.04
2023-03-28T04:25:13.898Z,19.05
2023-03-28T04:27:41.983Z,19.06
2023-03-28T04:30:10.013Z,19.07
2023-03-28T04:32:40.817Z,19.07
2023-03-28T04:35:12.551Z,19.09
2023-03-28T04:37:53.873Z,19.10
2023-03-28T04:40:24.271Z,19.09
2023-03-28T04:42:56.252Z,19.11
2023-03-28T04:45:25.532Z,19.09
2023-03-28T04:47:53.782Z,19.11
2023-03-28T04:50:20.670Z,19.11
2023-03-28T04:52:54.595Z,19.13
2023-03-28T04:55:21.357Z,19.13
2023-03-28T04:57:50.335Z,19.13
2023-03-28T05:00:22.568Z,19.14
2023-03-28T05:02:51.554Z,19.15
2023-03-28T05:05:22.021Z,19.16
2023-03-28T05:07:49.778Z,19.16
2023-03-28T05:10:16.540Z,19.16
2023-03-28T05:12:46.065Z,18.62
2023-03-28T05:15:22.270Z,18.02
2023-03-28T05:17:50.861Z,17.67
2023-03-28T05:20:19.615Z,17.34
2023-03-28T05:22:48.995Z,16.82
2023-03-28T05:25:15.849Z,16.61
2023-03-28T05:27:48.912Z,16.59
2023-03-28T05:30:24.311Z,16.31
2023-03-28T05:32:53.134Z,16.54
2023-03-28T05:35:22.073Z,16.56
2023-03-28T05:37:48.802Z,16.54
2023-03-28T05:40:15.556Z,16.50
2023-03-28T05:42:44.522Z,16.50
2023-03-28T05:45:12.602Z,16.50
2023-03-28T05:47:39.517Z,16.48
2023-03-28T05:50:09.458Z,16.46
2023-03-28T05:52:38.520Z,16.42
2023-03-28T05:55:09.016Z,16.40
2023-03-28T05:57:40.354Z,16.39
2023-03-28T06:00:13.792Z,16.38
2023-03-28T06:02:43.527Z,16.35
2023-03-28T06:07:53.977Z,16.32
2023-03-28T06:13:02.059Z,16.31
2023-03-28T06:15:31.137Z,16.32
2023-03-28T06:17:58.221Z,16.30
2023-03-28T06:20:27.395Z,16.29
2023-03-28T06:22:57.502Z,16.29
2023-03-28T06:25:27.923Z,16.32
2023-03-28T06:28:02.862Z,16.30
2023-03-28T06:30:34.391Z,16.30
2023-03-28T06:33:01.506Z,15.66
2023-03-28T06:35:29.698Z,16.06
2023-03-28T06:37:58.559Z,16.22
2023-03-28T06:40:27.899Z,16.30
2023-03-28T06:42:55.669Z,16.38
2023-03-28T06:45:24.515Z,16.54
2023-03-28T06:47:55.886Z,16.65
2023-03-28T06:50:30.907Z,16.72
2023-03-28T06:52:57.588Z,16.78
2023-03-28T06:55:24.302Z,16.87
2023-03-28T06:57:50.961Z,16.95
2023-03-28T07:00:18.270Z,17.03
2023-03-28T07:02:48.312Z,17.11
2023-03-28T07:05:20.627Z,17.18
2023-03-28T07:07:49.440Z,17.25
2023-03-28T07:10:18.751Z,17.33
2023-03-28T07:12:50.201Z,17.39
2023-03-28T07:15:18.999Z,17.45
2023-03-28T07:17:48.403Z,17.51
2023-03-28T07:20:15.091Z,17.58
2023-03-28T07:22:41.885Z,17.64
2023-03-28T07:25:08.819Z,17.69
2023-03-28T07:27:37.575Z,17.76
2023-03-28T07:30:05.323Z,17.81
2023-03-28T07:32:47.455Z,17.89
2023-03-28T07:35:19.006Z,17.94
2023-03-28T07:37:45.649Z,17.97
2023-03-28T07:40:16.464Z,18.05
2023-03-28T07:42:45.671Z,18.10
2023-03-28T07:45:14.588Z,18.13
2023-03-28T07:47:44.008Z,18.22
2023-03-28T07:50:11.129Z,18.24
2023-03-28T07:52:45.728Z,18.28
2023-03-28T07:55:25.596Z,18.31
2023-03-28T07:57:54.363Z,18.35
2023-03-28T08:00:24.030Z,18.38
2023-03-28T08:02:51.395Z,18.44
2023-03-28T08:05:21.867Z,18.47
2023-03-28T08:07:56.869Z,18.52
2023-03-28T08:10:23.564Z,18.55
2023-03-28T08:12:50.418Z,18.57
2023-03-28T08:15:17.275Z,18.58
2023-03-28T08:17:45.510Z,18.61
2023-03-28T08:20:12.547Z,17.78
2023-03-28T08:22:42.047Z,16.70
2023-03-28T08:25:19.616Z,15.99
2023-03-28T08:27:49.018Z,16.75
2023-03-28T08:30:18.941Z,17.14
2023-03-28T08:32:48.957Z,17.27
2023-03-28T08:35:18.906Z,17.35
2023-03-28T08:37:45.853Z,17.44
2023-03-28T08:40:16.317Z,17.53
2023-03-28T08:43:01.653Z,17.61
2023-03-28T08:45:57.840Z,17.68
2023-03-28T08:48:45.008Z,17.77
2023-03-28T08:51:46.708Z,17.84
2023-03-28T08:54:17.614Z,17.93
2023-03-28T08:56:55.785Z,18.01
2023-03-28T08:59:32.169Z,18.10
2023-03-28T09:02:04.616Z,18.16
2023-03-28T09:04:35.738Z,18.23
2023-03-28T09:07:52.690Z,18.27
2023-03-28T09:10:47.571Z,18.33
2023-03-28T09:13:44.956Z,18.40
2023-03-28T09:16:29.987Z,17.86
2023-03-28T09:19:05.886Z,17.59
2023-03-28T09:22:02.289Z,17.95
2023-03-28T09:24:43.775Z,18.05
2023-03-28T09:27:28.674Z,18.10
2023-03-28T09:29:59.047Z,18.13
2023-03-28T09:32:36.721Z,18.16
2023-03-28T09:35:12.294Z,18.20
2023-03-28T09:37:46.444Z,18.23
2023-03-28T09:40:24.120Z,18.26
2023-03-28T09:43:11.414Z,18.29
2023-03-28T09:45:49.582Z,18.32
2023-03-28T09:48:24.305Z,18.34
2023-03-28T09:50:54.313Z,18.39
2023-03-28T09:53:26.557Z,18.43
2023-03-28T09:56:04.257Z,18.44
2023-03-28T09:58:56.183Z,18.46
2023-03-28T10:01:44.161Z,18.48
2023-03-28T10:04:18.301Z,18.52
2023-03-28T10:06:49.754Z,18.53
2023-03-28T10:09:29.866Z,18.58
2023-03-28T10:12:02.649Z,18.60
2023-03-28T10:14:43.886Z,18.61
2023-03-28T10:17:17.084Z,18.67
2023-03-28T10:19:47.300Z,18.69
2023-03-28T10:22:13.830Z,18.71
2023-03-28T10:24:40.782Z,18.72
2023-03-28T10:27:23.988Z,18.73
2023-03-28T10:29:58.331Z,18.78
2023-03-28T10:32:29.698Z,18.78
2023-03-28T10:35:20.623Z,18.80
2023-03-28T10:37:54.878Z,18.82
2023-03-28T10:40:21.449Z,18.84
2023-03-28T10:42:51.224Z,18.86
2023-03-28T10:45:27.865Z,18.88
2023-03-28T10:47:59.800Z,18.88
2023-03-28T10:50:36.837Z,18.89
2023-03-28T10:53:28.262Z,18.93
2023-03-28T10:56:07.645Z,18.95
2023-03-28T10:58:40.395Z,18.97
2023-03-28T11:01:30.737Z,19.00
2023-03-28T11:04:11.292Z,19.02
2023-03-28T11:06:49.273Z,19.03
2023-03-28T11:09:28.134Z,19.01
2023-03-28T11:12:07.183Z,19.00
2023-03-28T11:14:46.463Z,19.03
2023-03-28T11:17:28.214Z,19.08
2023-03-28T11:20:33.062Z,19.07
2023-03-28T11:23:24.524Z,19.02
2023-03-28T11:25:55.867Z,19.04
2023-03-28T11:28:34.473Z,19.02
2023-03-28T11:31:01.341Z,18.98
2023-03-28T11:33:34.018Z,18.92
2023-03-28T11:36:05.613Z,18.93
2023-03-28T11:52:18.642Z,19.05
2023-03-28T11:54:57.607Z,18.55
2023-03-28T11:57:39.512Z,18.21
2023-03-28T12:00:23.082Z,17.65
2023-03-28T12:03:33.012Z,17.64
2023-03-28T12:06:11.050Z,17.47
2023-03-28T12:08:46.477Z,17.69
2023-03-28T12:11:42.429Z,17.78
2023-03-28T12:14:39.530Z,17.89
2023-03-28T12:17:17.714Z,17.90
2023-03-28T12:19:48.563Z,17.95
2023-03-28T12:22:26.646Z,17.98
2023-03-28T12:25:14.378Z,18.02
2023-03-28T12:27:47.311Z,18.07
2023-03-28T12:30:26.477Z,18.11
2023-03-28T12:33:08.071Z,18.15
2023-03-28T12:35:40.502Z,18.18
2023-03-28T12:38:40.056Z,18.22
2023-03-28T12:41:11.762Z,18.27
2023-03-28T12:44:00.478Z,18.29
2023-03-28T12:46:37.866Z,18.33
2023-03-28T12:49:14.820Z,18.35
2023-03-28T12:51:51.234Z,18.37
2023-03-28T12:54:17.800Z,18.39
2023-03-28T12:56:50.064Z,18.42
2023-03-28T12:59:46.388Z,18.44
2023-03-28T13:02:36.331Z,18.47
2023-03-28T13:05:20.849Z,18.48
2023-03-28T13:08:13.631Z,18.51
2023-03-28T13:10:53.832Z,18.52
2023-03-28T13:13:42.868Z,18.53
2023-03-28T13:16:26.248Z,18.56
2023-03-28T13:19:07.041Z,18.55
2023-03-28T13:21:50.547Z,18.57
2023-03-28T13:24:26.619Z,18.58
2023-03-28T13:26:56.649Z,18.60
2023-03-28T13:29:45.416Z,18.60
2023-03-28T13:32:16.867Z,18.60
2023-03-28T13:34:49.540Z,18.63
2023-03-28T13:37:28.990Z,18.62
2023-03-28T13:40:01.551Z,18.62
2023-03-28T13:42:38.342Z,18.62
2023-03-28T13:45:23.336Z,18.63
2023-03-28T13:48:06.385Z,18.64
2023-03-28T13:50:41.666Z,18.64
2023-03-28T13:53:12.975Z,18.65
2023-03-28T13:55:39.521Z,18.66
2023-03-28T13:58:06.560Z,18.63
2023-03-28T14:00:36.197Z,18.67
2023-03-28T14:03:11.561Z,18.68
2023-03-28T14:05:45.861Z,18.67
2023-03-28T14:08:18.324Z,18.69
2023-03-28T14:10:47.941Z,18.69
2023-03-28T14:13:18.379Z,18.71
2023-03-28T14:15:45.157Z,18.72
2023-03-28T14:18:18.739Z,18.73
2023-03-28T14:20:51.404Z,18.75
2023-03-28T14:23:41.153Z,18.77
2023-03-28T14:28:59.130Z,18.77
2023-03-28T14:31:40.352Z,18.82
2023-03-28T14:34:16.312Z,18.83
2023-03-28T14:37:09.942Z,18.84
2023-03-28T14:39:39.395Z,18.85
2023-03-28T14:42:15.760Z,18.88
2023-03-28T14:44:54.807Z,18.87
2023-03-28T14:47:35.957Z,18.90
2023-03-28T14:50:09.913Z,18.94
2023-03-28T14:52:40.915Z,18.95
2023-03-28T14:55:37.757Z,18.94
2023-03-28T14:58:11.296Z,18.97
2023-03-28T15:00:40.981Z,18.98
2023-03-28T15:03:12.837Z,19.00
2023-03-28T15:05:43.110Z,19.01
2023-03-28T15:08:28.736Z,19.02
2023-03-28T15:10:55.658Z,19.03
2023-03-28T15:14:04.490Z,19.04
2023-03-28T15:16:40.415Z,19.05
2023-03-28T15:19:14.754Z,19.07
2023-03-28T15:21:41.904Z,19.06
2023-03-28T15:24:11.862Z,19.07
2023-03-28T15:26:42.660Z,19.07
2023-03-28T15:29:09.340Z,19.07
2023-03-28T15:31:44.413Z,19.08
2023-03-28T15:34:12.000Z,19.07
2023-03-28T15:36:47.032Z,19.08
2023-03-28T15:39:19.589Z,19.07
2023-03-28T15:41:46.397Z,19.08
2023-03-28T15:44:38.626Z,19.07
2023-03-28T15:47:18.694Z,19.06
2023-03-28T15:49:51.798Z,19.06
2023-03-28T15:52:21.894Z,19.04
2023-03-28T15:54:50.253Z,19.04
2023-03-28T15:57:27.243Z,19.03
2023-03-28T15:59:56.229Z,19.02
2023-03-28T16:02:25.778Z,19.02
2023-03-28T16:05:02.493Z,19.00
2023-03-28T16:07:44.350Z,19.01
2023-03-28T16:10:11.322Z,19.00
2023-03-28T16:12:40.150Z,18.99
2023-03-28T16:15:07.483Z,18.99
2023-03-28T16:17:36.621Z,18.98
2023-03-28T16:20:13.751Z,18.98
2023-03-28T16:22:42.619Z,18.96
2023-03-28T16:27:50.515Z,18.95
2023-03-28T16:30:25.535Z,18.94
2023-03-28T16:32:54.510Z,18.94
2023-03-28T16:35:23.461Z,18.94
2023-03-28T16:37:52.352Z,18.95
2023-03-28T16:40:21.302Z,18.93
2023-03-28T16:42:51.050Z,18.95
2023-03-28T16:45:20.946Z,18.95
2023-03-28T16:47:52.902Z,18.95
2023-03-28T16:50:22.036Z,18.94
2023-03-28T16:52:48.672Z,18.94
2023-03-28T16:55:16.650Z,18.95
2023-03-28T16:57:47.909Z,18.95
2023-03-28T17:00:18.199Z,18.94
2023-03-28T17:02:50.959Z,18.95
2023-03-28T17:05:17.918Z,18.93
2023-03-28T17:07:46.779Z,18.92
2023-03-28T17:10:14.107Z,18.92
2023-03-28T17:12:41.355Z,18.90
2023-03-28T17:15:13.290Z,18.91
2023-03-28T17:17:40.001Z,18.89
2023-03-28T17:20:07.299Z,18.88
2023-03-28T17:22:38.722Z,18.88
2023-03-28T17:25:08.008Z,18.87
2023-03-28T17:27:40.081Z,18.88
2023-03-28T17:30:13.514Z,18.85
2023-03-28T17:32:40.466Z,18.85
2023-03-28T17:35:12.173Z,18.85
2023-03-28T17:37:41.806Z,18.83
2023-03-28T17:40:09.008Z,18.82
2023-03-28T17:42:35.631Z,18.82
2023-03-28T17:45:05.074Z,18.82
2023-03-28T17:47:44.121Z,18.80
2023-03-28T17:50:13.001Z,18.81
2023-03-28T17:52:39.907Z,18.81
2023-03-28T17:55:09.351Z,18.80
2023-03-28T17:57:36.341Z,18.79
2023-03-28T18:00:09.973Z,18.78
2023-03-28T18:05:18.902Z,18.77
2023-03-28T18:07:45.588Z,18.77
2023-03-28T18:10:14.979Z,18.75
2023-03-28T18:12:46.272Z,18.77
2023-03-28T18:15:17.585Z,18.76
2023-03-28T18:17:46.839Z,18.75
2023-03-28T18:20:15.696Z,18.75
2023-03-28T18:22:43.403Z,18.75
2023-03-28T18:25:10.200Z,18.77
2023-03-28T18:31:03.830Z,18.77
2023-03-28T18:33:33.685Z,18.77
2023-03-28T18:36:03.040Z,18.78
2023-03-28T18:38:36.699Z,18.78
2023-03-28T18:41:08.694Z,18.79
2023-03-28T18:43:41.145Z,18.79
2023-03-28T18:46:11.898Z,18.79
2023-03-28T18:48:46.324Z,18.80
2023-03-28T18:51:13.774Z,18.80
2023-03-28T18:53:45.458Z,18.80
2023-03-28T18:56:15.271Z,18.80
2023-03-28T18:58:41.954Z,18.81
2023-03-28T19:01:11.364Z,18.82
2023-03-28T19:03:41.865Z,18.81
2023-03-28T19:06:12.276Z,18.82
2023-03-28T19:08:45.208Z,18.82
2023-03-28T19:11:24.619Z,18.80
2023-03-28T19:13:56.469Z,18.82
2023-03-28T19:16:23.266Z,18.83
2023-03-28T19:18:50.127Z,18.82
2023-03-28T19:21:17.142Z,18.81
2023-03-28T19:23:49.602Z,18.74
2023-03-28T19:26:16.381Z,18.79
2023-03-28T19:28:51.386Z,18.78
2023-03-28T19:31:20.232Z,18.80
2023-03-28T19:33:46.965Z,18.79
2023-03-28T19:36:13.688Z,18.80
2023-03-28T19:38:40.437Z,18.81
2023-03-28T19:41:16.099Z,18.80
2023-03-28T19:43:48.781Z,18.80
2023-03-28T19:46:24.350Z,18.81
2023-03-28T19:49:00.330Z,18.81
2023-03-28T19:51:34.185Z,18.81
2023-03-28T19:54:03.750Z,18.83
2023-03-28T19:56:35.071Z,18.83
2023-03-28T19:59:06.495Z,18.81
2023-03-28T20:01:33.217Z,18.82
2023-03-28T20:06:46.518Z,18.82
2023-03-28T20:09:19.430Z,18.82
2023-03-28T20:11:50.978Z,18.82
2023-03-28T20:14:20.269Z,18.81
2023-03-28T20:16:48.039Z,18.82
2023-03-28T20:19:16.868Z,18.83
2023-03-28T20:21:46.460Z,18.82
2023-03-28T20:24:13.390Z,18.83
2023-03-28T20:26:42.344Z,18.83
2023-03-28T20:29:22.369Z,18.82
2023-03-28T20:31:51.295Z,18.82
2023-03-28T20:42:19.596Z,18.82
2023-03-28T20:44:49.040Z,18.82
2023-03-28T20:47:22.163Z,18.81
2023-03-28T20:49:49.948Z,18.82
2023-03-28T20:52:16.780Z,18.81
2023-03-28T20:55:05.544Z,18.78
2023-03-28T20:57:41.603Z,18.80
2023-03-28T21:00:13.974Z,18.80
2023-03-28T21:02:45.085Z,18.80
2023-03-28T21:05:14.917Z,18.80
2023-03-28T21:07:41.811Z,18.79
2023-03-28T21:10:11.749Z,18.80
2023-03-28T21:12:42.993Z,18.78
2023-03-28T21:15:10.144Z,18.78
2023-03-28T21:17:37.294Z,18.77
2023-03-28T21:20:07.349Z,18.78
2023-03-28T21:22:38.057Z,18.77
2023-03-28T21:25:08.160Z,18.75
2023-03-28T21:27:37.368Z,18.76
2023-03-28T21:30:07.968Z,18.76
2023-03-28T21:32:39.730Z,18.76
2023-03-28T21:35:06.952Z,18.75
2023-03-28T21:37:36.623Z,18.75
2023-03-28T21:40:06.837Z,18.75
2023-03-28T21:42:35.121Z,18.73
2023-03-28T21:45:04.459Z,18.73
2023-03-28T21:47:31.559Z,18.74
2023-03-28T21:50:01.296Z,18.74
2023-03-28T21:52:30.351Z,18.74
2023-03-28T21:55:02.926Z,18.74
2023-03-28T21:57:36.828Z,18.73
2023-03-28T22:00:14.916Z,18.34
2023-03-28T22:17:44.605Z,17.30
2023-03-28T22:20:14.966Z,17.34
2023-03-28T22:22:45.141Z,17.41
2023-03-28T22:48:22.042Z,17.82
2023-03-28T22:50:50.391Z,17.86
2023-03-28T22:53:17.790Z,17.90
2023-03-28T22:55:44.473Z,17.91
2023-03-28T22:58:16.279Z,17.94
2023-03-28T23:00:46.787Z,17.98
2023-03-28T23:03:14.078Z,17.99
2023-03-28T23:05:40.780Z,18.02
2023-03-28T23:08:07.516Z,18.04
2023-03-28T23:10:37.162Z,18.06
2023-03-28T23:13:08.565Z,18.07
2023-03-28T23:15:35.845Z,18.10
2023-03-28T23:18:04.982Z,18.11
2023-03-28T23:23:15.845Z,18.15
2023-03-28T23:25:43.226Z,18.16
2023-03-28T23:28:16.862Z,18.17
2023-03-28T23:30:47.606Z,18.20
2023-03-28T23:33:25.686Z,18.19
2023-03-28T23:35:57.006Z,18.23
2023-03-28T23:38:26.191Z,18.24
2023-03-28T23:43:39.379Z,18.25
2023-03-28T23:46:08.166Z,18.28
2023-03-28T23:48:37.768Z,18.30
2023-03-28T23:51:05.043Z,18.29
2023-03-28T23:56:15.567Z,18.32
2023-03-28T23:58:44.701Z,18.32
